createdAt,value
2019-06-20T00:02:39.112Z,21.04
2019-06-20T00:07:45.079Z,20.94
2019-06-20T00:13:00.003Z,20.91
2019-06-20T00:17:58.866Z,20.85
2019-06-20T00:23:04.935Z,20.71
2019-06-20T00:28:10.906Z,20.68
2019-06-20T00:33:18.107Z,20.64
2019-06-20T00:38:23.973Z,20.55
2019-06-20T00:43:29.950Z,20.50
2019-06-20T00:48:36.017Z,20.42
2019-06-20T00:53:42.142Z,20.37
2019-06-20T00:58:48.165Z,20.18
2019-06-20T01:03:54.352Z,20.12
2019-06-20T01:09:00.208Z,20.15
2019-06-20T01:14:07.919Z,20.08
2019-06-20T01:19:13.888Z,19.90
2019-06-20T01:24:19.864Z,19.81
2019-06-20T01:29:25.783Z,19.76
2019-06-20T01:34:31.709Z,19.70
2019-06-20T01:39:37.799Z,19.71
2019-06-20T01:44:43.956Z,19.70
2019-06-20T01:49:50.231Z,19.71
2019-06-20T01:54:56.298Z,19.52
2019-06-20T02:00:03.875Z,19.45
2019-06-20T02:05:11.535Z,19.41
2019-06-20T02:10:18.208Z,19.32
2019-06-20T02:15:24.172Z,19.33
2019-06-20T02:20:50.219Z,19.28
2019-06-20T02:25:56.190Z,19.32
2019-06-20T02:31:02.474Z,19.26
2019-06-20T02:36:08.751Z,19.27
2019-06-20T02:41:15.331Z,19.27
2019-06-20T02:46:21.296Z,19.26
2019-06-20T02:51:28.020Z,19.34
2019-06-20T02:56:33.994Z,19.35
2019-06-20T03:01:39.829Z,19.46
2019-06-20T03:06:46.206Z,19.62
2019-06-20T03:11:52.145Z,19.75
2019-06-20T03:16:58.356Z,19.89
2019-06-20T03:22:04.327Z,20.08
2019-06-20T03:27:10.410Z,20.30
2019-06-20T03:32:16.386Z,20.44
2019-06-20T03:37:22.375Z,20.85
2019-06-20T03:42:28.326Z,20.79
2019-06-20T03:47:34.282Z,21.00
2019-06-20T03:52:40.249Z,21.10
2019-06-20T03:57:46.221Z,21.45
2019-06-20T04:02:52.189Z,21.64
2019-06-20T04:07:58.983Z,21.90
2019-06-20T04:13:05.421Z,22.03
2019-06-20T04:18:11.332Z,22.07
2019-06-20T04:23:17.302Z,22.38
2019-06-20T04:28:23.173Z,22.53
2019-06-20T04:33:29.554Z,22.74
2019-06-20T04:38:35.527Z,23.11
2019-06-20T04:43:42.932Z,23.34
2019-06-20T04:48:49.046Z,23.36
2019-06-20T04:53:55.427Z,23.51
2019-06-20T04:59:01.562Z,23.84
2019-06-20T05:04:07.740Z,24.24
2019-06-20T05:09:13.863Z,24.55
2019-06-20T05:14:19.939Z,25.02
2019-06-20T05:19:26.145Z,25.40
2019-06-20T05:24:32.229Z,25.76
2019-06-20T05:29:38.518Z,26.14
2019-06-20T05:34:44.684Z,26.27
2019-06-20T05:39:51.066Z,27.05
2019-06-20T05:44:57.382Z,27.27
2019-06-20T05:50:04.847Z,27.92
2019-06-20T05:55:11.645Z,28.37
2019-06-20T06:00:19.926Z,28.72
2019-06-20T06:05:26.650Z,29.05
2019-06-20T06:10:33.028Z,29.23
2019-06-20T06:15:39.151Z,29.49
2019-06-20T06:20:45.692Z,29.49
2019-06-20T06:25:52.305Z,30.07
2019-06-20T06:30:58.354Z,30.02
2019-06-20T06:36:04.831Z,30.30
2019-06-20T06:41:11.312Z,30.32
2019-06-20T06:46:17.646Z,29.30
2019-06-20T06:51:23.838Z,29.77
2019-06-20T06:56:30.225Z,29.65
2019-06-20T07:01:36.987Z,29.87
2019-06-20T07:06:43.227Z,29.93
2019-06-20T07:11:49.285Z,30.27
2019-06-20T07:17:00.325Z,30.12
2019-06-20T07:22:02.933Z,29.80
2019-06-20T07:27:09.155Z,29.64
2019-06-20T07:32:15.235Z,29.75
2019-06-20T07:37:21.460Z,29.32
2019-06-20T07:42:27.675Z,29.65
2019-06-20T07:47:34.160Z,29.55
2019-06-20T07:52:40.258Z,29.34
2019-06-20T07:57:46.705Z,29.24
2019-06-20T08:02:52.867Z,29.89
2019-06-20T08:08:00.019Z,30.40
2019-06-20T08:13:11.702Z,30.38
2019-06-20T08:18:18.109Z,30.19
2019-06-20T08:23:25.081Z,30.85
2019-06-20T08:28:31.311Z,31.18
2019-06-20T08:33:37.526Z,31.78
2019-06-20T08:38:43.545Z,31.44
2019-06-20T08:43:49.559Z,31.82
2019-06-20T08:48:56.616Z,31.60
2019-06-20T08:54:03.581Z,31.65
2019-06-20T08:59:23.430Z,31.59
2019-06-20T09:04:22.202Z,31.34
2019-06-20T09:09:26.498Z,31.27
2019-06-20T09:14:32.582Z,31.13
2019-06-20T09:19:38.640Z,31.26
2019-06-20T09:24:44.796Z,31.19
2019-06-20T09:29:51.569Z,31.05
2019-06-20T09:34:59.503Z,31.07
2019-06-20T09:40:08.260Z,31.25
2019-06-20T09:45:18.435Z,30.99
2019-06-20T09:50:26.021Z,30.87
2019-06-20T09:55:32.173Z,30.88
2019-06-20T10:00:40.156Z,30.71
2019-06-20T10:05:47.619Z,30.61
2019-06-20T10:10:54.346Z,31.11
2019-06-20T10:16:00.387Z,31.29
2019-06-20T10:21:06.812Z,31.23
2019-06-20T10:26:13.134Z,31.28
2019-06-20T10:31:19.319Z,31.10
2019-06-20T10:36:25.494Z,31.28
2019-06-20T10:41:31.561Z,31.18
2019-06-20T10:46:37.720Z,31.32
2019-06-20T10:51:47.655Z,31.45
2019-06-20T10:56:53.786Z,31.50
2019-06-20T11:01:59.857Z,31.58
2019-06-20T11:07:06.071Z,31.59
2019-06-20T11:12:12.352Z,31.42
2019-06-20T11:17:18.474Z,31.42
2019-06-20T11:22:24.541Z,31.45
2019-06-20T11:27:31.533Z,30.96
2019-06-20T11:32:38.325Z,30.92
2019-06-20T11:37:45.446Z,31.15
2019-06-20T11:42:51.610Z,31.54
2019-06-20T11:47:57.605Z,31.53
2019-06-20T11:53:04.062Z,32.12
2019-06-20T11:58:10.135Z,32.46
2019-06-20T12:03:19.592Z,32.50
2019-06-20T12:08:27.964Z,32.68
2019-06-20T12:13:33.979Z,32.62
2019-06-20T12:18:41.493Z,32.73
2019-06-20T12:23:48.998Z,33.13
2019-06-20T12:28:55.212Z,33.11
2019-06-20T12:34:01.527Z,33.17
2019-06-20T12:39:08.761Z,33.39
2019-06-20T12:44:14.997Z,33.34
2019-06-20T12:49:23.849Z,32.69
2019-06-20T12:54:30.250Z,31.92
2019-06-20T12:59:38.080Z,31.52
2019-06-20T13:04:44.389Z,31.18
2019-06-20T13:09:50.731Z,30.12
2019-06-20T13:14:57.275Z,29.42
2019-06-20T13:20:04.709Z,28.63
2019-06-20T13:25:11.699Z,27.97
2019-06-20T13:30:19.289Z,27.55
2019-06-20T13:35:25.616Z,27.26
2019-06-20T13:40:31.865Z,27.04
2019-06-20T13:45:39.603Z,26.91
2019-06-20T13:50:47.350Z,26.54
2019-06-20T13:55:53.870Z,26.25
2019-06-20T14:01:00.050Z,25.83
2019-06-20T14:06:06.804Z,24.83
2019-06-20T14:11:13.053Z,24.10
2019-06-20T14:16:19.087Z,23.03
2019-06-20T14:21:25.271Z,22.58
2019-06-20T14:26:31.347Z,22.56
2019-06-20T14:31:37.712Z,22.67
2019-06-20T14:36:44.745Z,22.93
2019-06-20T14:41:51.711Z,23.28
2019-06-20T14:46:59.463Z,23.08
2019-06-20T14:52:05.718Z,23.24
2019-06-20T14:57:11.671Z,23.32
2019-06-20T15:02:18.665Z,23.40
2019-06-20T15:07:25.187Z,23.41
2019-06-20T15:12:31.738Z,23.36
2019-06-20T15:17:38.006Z,23.26
2019-06-20T15:22:46.782Z,23.22
2019-06-20T15:27:53.903Z,23.12
2019-06-20T15:33:09.709Z,23.16
2019-06-20T15:38:07.320Z,23.10
2019-06-20T15:43:13.315Z,22.68
2019-06-20T15:48:19.399Z,22.85
2019-06-20T15:53:25.428Z,22.93
2019-06-20T15:58:32.772Z,22.70
2019-06-20T16:03:38.944Z,22.62
2019-06-20T16:08:45.184Z,22.22
2019-06-20T16:13:51.387Z,22.26
2019-06-20T16:18:57.570Z,22.20
2019-06-20T16:24:03.613Z,22.08
2019-06-20T16:29:10.050Z,22.33
2019-06-20T16:34:16.392Z,21.79
2019-06-20T16:39:22.925Z,21.27
2019-06-20T16:44:28.967Z,20.97
2019-06-20T16:49:35.079Z,21.08
2019-06-20T16:54:41.279Z,20.83
2019-06-20T16:59:47.759Z,20.91
2019-06-20T17:04:56.444Z,20.67
2019-06-20T17:10:00.814Z,20.72
2019-06-20T17:15:08.044Z,20.42
2019-06-20T17:20:15.752Z,20.59
2019-06-20T17:25:22.336Z,20.69
2019-06-20T17:30:29.027Z,20.60
2019-06-20T17:35:36.224Z,20.70
2019-06-20T17:40:42.401Z,20.73
2019-06-20T17:45:48.569Z,20.64
2019-06-20T17:50:54.524Z,20.42
2019-06-20T17:56:00.838Z,20.37
2019-06-20T18:01:07.288Z,20.44
2019-06-20T18:06:13.265Z,20.43
2019-06-20T18:11:19.855Z,20.49
2019-06-20T18:16:26.111Z,20.62
2019-06-20T18:21:32.202Z,20.70
2019-06-20T18:26:38.583Z,20.67
2019-06-20T18:31:44.654Z,20.59
2019-06-20T18:36:50.625Z,20.57
2019-06-20T18:41:57.310Z,20.57
2019-06-20T18:47:03.521Z,20.57
2019-06-20T18:52:09.816Z,20.42
2019-06-20T18:57:16.965Z,20.28
2019-06-20T19:02:23.196Z,20.28
2019-06-20T19:07:29.459Z,20.29
2019-06-20T19:12:35.593Z,20.52
2019-06-20T19:17:41.695Z,20.56
2019-06-20T19:22:47.739Z,20.40
2019-06-20T19:27:53.972Z,20.46
2019-06-20T19:32:59.985Z,20.09
2019-06-20T19:38:06.285Z,19.87
2019-06-20T19:43:12.649Z,19.88
2019-06-20T19:48:19.132Z,20.09
2019-06-20T19:53:25.207Z,20.24
2019-06-20T19:58:31.287Z,20.42
2019-06-20T20:03:37.453Z,20.38
2019-06-20T20:08:43.571Z,20.43
2019-06-20T20:13:49.862Z,20.53
2019-06-20T20:18:55.883Z,20.44
2019-06-20T20:24:01.884Z,20.52
2019-06-20T20:29:09.343Z,20.43
2019-06-20T20:34:15.628Z,20.31
2019-06-20T20:39:21.729Z,20.35
2019-06-20T20:44:27.665Z,20.46
2019-06-20T20:49:33.478Z,20.52
2019-06-20T20:54:39.490Z,20.46
2019-06-20T20:59:45.388Z,20.36
2019-06-20T21:04:51.363Z,20.36
2019-06-20T21:09:58.571Z,20.40
2019-06-20T21:15:07.487Z,20.42
2019-06-20T21:20:13.970Z,20.35
2019-06-20T21:25:19.944Z,20.17
2019-06-20T21:30:26.628Z,20.20
2019-06-20T21:35:32.716Z,20.16
2019-06-20T21:40:38.674Z,20.14
2019-06-20T21:45:45.058Z,20.17
2019-06-20T21:50:51.588Z,20.15
2019-06-20T21:55:57.710Z,20.21
2019-06-20T22:01:04.631Z,20.28
2019-06-20T22:06:23.204Z,20.21
2019-06-20T22:11:18.901Z,20.08
2019-06-20T22:16:24.870Z,19.89
2019-06-20T22:21:31.053Z,19.48
2019-06-20T22:26:37.122Z,19.15
2019-06-20T22:31:43.303Z,19.15
2019-06-20T22:36:49.266Z,19.19
2019-06-20T22:41:55.460Z,19.06
2019-06-20T22:47:01.759Z,19.19
2019-06-20T22:52:07.892Z,19.30
2019-06-20T22:57:13.764Z,19.33
2019-06-20T23:02:19.794Z,19.44
2019-06-20T23:07:25.808Z,19.42
2019-06-20T23:12:31.719Z,19.50
2019-06-20T23:17:37.679Z,19.65
2019-06-20T23:22:43.512Z,19.65
2019-06-20T23:27:49.489Z,19.59
2019-06-20T23:32:55.461Z,19.43
2019-06-20T23:38:01.427Z,19.47
2019-06-20T23:43:07.501Z,19.42
2019-06-20T23:48:13.470Z,19.24
2019-06-20T23:53:26.590Z,19.03
2019-06-20T23:58:32.588Z,19.04
